createdAt,value
2022-10-19T00:01:19.107Z,2.80
2022-10-19T00:06:26.178Z,2.70
2022-10-19T00:09:01.130Z,2.67
2022-10-19T00:11:31.970Z,2.53
2022-10-19T00:13:59.644Z,2.35
2022-10-19T00:16:29.526Z,2.17
2022-10-19T00:18:58.206Z,1.88
2022-10-19T00:21:25.069Z,2.20
2022-10-19T00:23:51.740Z,2.40
2022-10-19T00:26:18.501Z,2.13
2022-10-19T00:28:45.719Z,1.95
2022-10-19T00:31:15.832Z,2.25
2022-10-19T00:33:44.520Z,1.90
2022-10-19T00:36:16.793Z,2.15
2022-10-19T00:38:43.410Z,2.00
2022-10-19T00:41:12.326Z,2.08
2022-10-19T00:43:56.675Z,2.35
2022-10-19T00:46:24.033Z,2.20
2022-10-19T00:48:54.813Z,2.47
2022-10-19T00:51:22.496Z,2.67
2022-10-19T00:53:49.412Z,3.05
2022-10-19T00:56:17.706Z,2.40
2022-10-19T00:58:45.341Z,2.80
2022-10-19T01:01:18.853Z,2.25
2022-10-19T01:03:45.878Z,2.53
2022-10-19T01:06:14.854Z,2.25
2022-10-19T01:08:41.486Z,2.63
2022-10-19T01:11:29.213Z,2.40
2022-10-19T01:14:34.268Z,2.53
2022-10-19T01:17:15.460Z,2.47
2022-10-19T01:19:51.215Z,2.20
2022-10-19T01:22:42.092Z,2.70
2022-10-19T01:25:24.021Z,2.80
2022-10-19T01:27:57.202Z,3.28
2022-10-19T01:30:36.864Z,2.85
2022-10-19T01:33:20.737Z,3.40
2022-10-19T01:35:58.202Z,3.42
2022-10-19T01:38:30.529Z,3.20
2022-10-19T01:41:17.630Z,2.65
2022-10-19T01:43:56.577Z,2.92
2022-10-19T01:46:37.523Z,3.28
2022-10-19T01:49:17.487Z,2.95
2022-10-19T01:51:51.863Z,3.40
2022-10-19T01:54:21.133Z,3.85
2022-10-19T01:56:50.899Z,3.20
2022-10-19T01:59:20.396Z,3.70
2022-10-19T02:01:52.754Z,3.05
2022-10-19T02:04:25.783Z,3.03
2022-10-19T02:06:54.133Z,3.67
2022-10-19T02:09:21.128Z,3.38
2022-10-19T02:12:01.494Z,3.88
2022-10-19T02:14:33.861Z,3.40
2022-10-19T02:17:08.980Z,3.10
2022-10-19T02:19:36.129Z,3.45
2022-10-19T02:22:05.283Z,3.78
2022-10-19T02:24:32.115Z,3.90
2022-10-19T02:27:00.991Z,3.45
2022-10-19T02:29:28.453Z,3.83
2022-10-19T02:31:55.498Z,3.50
2022-10-19T02:34:22.573Z,3.33
2022-10-19T02:36:51.838Z,3.53
2022-10-19T02:39:21.186Z,3.05
2022-10-19T02:42:00.587Z,3.85
2022-10-19T02:44:41.065Z,3.38
2022-10-19T02:47:25.564Z,3.60
2022-10-19T02:49:52.834Z,3.45
2022-10-19T02:52:20.069Z,4.05
2022-10-19T02:54:47.150Z,3.92
2022-10-19T02:57:25.267Z,4.20
2022-10-19T02:59:54.703Z,3.72
2022-10-19T03:02:21.710Z,3.95
2022-10-19T03:04:48.878Z,4.22
2022-10-19T03:07:23.412Z,4.22
2022-10-19T03:09:50.394Z,4.10
2022-10-19T03:12:17.481Z,3.95
2022-10-19T03:14:44.502Z,4.40
2022-10-19T03:17:13.832Z,4.28
2022-10-19T03:19:40.598Z,3.65
2022-10-19T03:22:07.593Z,4.43
2022-10-19T03:24:34.387Z,3.90
2022-10-19T03:27:01.123Z,4.32
2022-10-19T03:29:30.620Z,3.80
2022-10-19T03:31:57.589Z,4.30
2022-10-19T03:34:29.000Z,4.32
2022-10-19T03:36:56.845Z,4.18
2022-10-19T03:39:24.024Z,4.22
2022-10-19T03:41:50.961Z,4.28
2022-10-19T03:44:17.596Z,3.70
2022-10-19T03:46:44.372Z,4.15
2022-10-19T03:49:12.000Z,3.90
2022-10-19T03:51:38.603Z,3.97
2022-10-19T03:54:08.172Z,3.55
2022-10-19T03:56:36.354Z,3.78
2022-10-19T03:59:08.735Z,4.00
2022-10-19T04:01:42.668Z,3.75
2022-10-19T04:04:15.334Z,3.97
2022-10-19T04:06:44.491Z,4.18
2022-10-19T04:09:18.887Z,3.50
2022-10-19T04:11:46.163Z,3.90
2022-10-19T04:14:22.698Z,3.85
2022-10-19T04:17:03.405Z,3.95
2022-10-19T04:19:30.653Z,3.88
2022-10-19T04:21:57.647Z,3.80
2022-10-19T04:24:24.548Z,3.60
2022-10-19T04:26:57.444Z,4.07
2022-10-19T04:29:29.466Z,3.80
2022-10-19T04:31:58.281Z,4.28
2022-10-19T04:34:24.902Z,3.78
2022-10-19T04:36:53.454Z,3.70
2022-10-19T04:39:20.065Z,3.70
2022-10-19T04:41:46.875Z,3.20
2022-10-19T04:44:16.156Z,3.78
2022-10-19T04:46:42.878Z,3.22
2022-10-19T04:49:09.628Z,3.35
2022-10-19T04:51:36.281Z,3.40
2022-10-19T04:54:04.166Z,3.85
2022-10-19T04:56:32.735Z,3.58
2022-10-19T04:59:00.367Z,3.30
2022-10-19T05:01:30.512Z,3.75
2022-10-19T05:03:59.842Z,4.30
2022-10-19T05:06:27.162Z,3.92
2022-10-19T05:08:56.852Z,3.70
2022-10-19T05:11:25.985Z,3.85
2022-10-19T05:13:52.824Z,3.78
2022-10-19T05:16:21.848Z,3.88
2022-10-19T05:18:50.075Z,4.65
2022-10-19T05:21:17.545Z,4.18
2022-10-19T05:23:44.661Z,4.10
2022-10-19T05:26:14.642Z,5.50
2022-10-19T05:28:41.436Z,4.78
2022-10-19T05:31:12.964Z,4.88
2022-10-19T05:33:39.977Z,5.50
2022-10-19T05:36:21.367Z,4.75
2022-10-19T05:38:53.221Z,5.43
2022-10-19T05:41:21.437Z,4.80
2022-10-19T05:43:52.794Z,5.30
2022-10-19T05:46:19.781Z,5.22
2022-10-19T05:48:47.382Z,5.70
2022-10-19T05:51:16.725Z,5.32
2022-10-19T05:53:46.167Z,5.38
2022-10-19T05:56:18.618Z,5.55
2022-10-19T05:58:45.824Z,5.22
2022-10-19T06:01:14.087Z,4.75
2022-10-19T06:03:43.244Z,5.20
2022-10-19T06:06:10.448Z,6.15
2022-10-19T06:08:38.746Z,5.60
2022-10-19T06:11:15.983Z,5.32
2022-10-19T06:13:44.040Z,5.80
2022-10-19T06:16:14.291Z,5.55
2022-10-19T06:18:43.019Z,5.38
2022-10-19T06:21:16.214Z,5.28
2022-10-19T06:23:45.906Z,5.63
2022-10-19T06:26:14.478Z,5.72
2022-10-19T06:28:43.242Z,5.55
2022-10-19T06:31:10.858Z,5.85
2022-10-19T06:33:40.532Z,5.63
2022-10-19T06:36:12.977Z,5.82
2022-10-19T06:38:40.278Z,6.45
2022-10-19T06:41:06.970Z,5.60
2022-10-19T06:43:34.193Z,6.25
2022-10-19T06:46:08.726Z,6.90
2022-10-19T06:48:38.082Z,5.82
2022-10-19T06:51:09.706Z,6.30
2022-10-19T06:53:39.051Z,6.35
2022-10-19T06:56:06.964Z,6.07
2022-10-19T06:58:38.428Z,6.53
2022-10-19T07:01:10.234Z,6.00
2022-10-19T07:03:36.979Z,6.00
2022-10-19T07:06:13.774Z,6.60
2022-10-19T07:08:43.505Z,7.60
2022-10-19T07:11:16.317Z,9.60
2022-10-19T07:13:42.977Z,7.80
2022-10-19T07:16:20.940Z,6.57
2022-10-19T07:18:50.717Z,6.43
2022-10-19T07:21:19.019Z,6.47
2022-10-19T07:23:47.510Z,6.50
2022-10-19T07:26:17.594Z,6.60
2022-10-19T07:28:49.279Z,6.53
2022-10-19T07:31:21.311Z,6.25
2022-10-19T07:33:52.356Z,7.05
2022-10-19T07:36:23.998Z,9.40
2022-10-19T07:38:52.033Z,6.72
2022-10-19T07:41:21.556Z,6.78
2022-10-19T07:43:49.664Z,6.38
2022-10-19T07:46:24.278Z,6.40
2022-10-19T07:48:51.620Z,5.95
2022-10-19T07:51:19.849Z,6.63
2022-10-19T07:53:47.707Z,6.90
2022-10-19T07:56:16.832Z,7.45
2022-10-19T07:58:44.004Z,7.50
2022-10-19T08:01:13.585Z,6.20
2022-10-19T08:04:42.710Z,5.53
2022-10-19T08:06:28.280Z,6.43
2022-10-19T08:08:57.554Z,4.95
2022-10-19T08:11:30.808Z,5.10
2022-10-19T08:14:02.804Z,4.57
2022-10-19T08:16:40.576Z,4.80
2022-10-19T08:19:15.720Z,4.30
2022-10-19T08:21:47.667Z,3.95
2022-10-19T08:24:17.511Z,4.00
2022-10-19T08:26:45.252Z,4.85
2022-10-19T08:29:13.290Z,4.13
2022-10-19T08:31:40.565Z,3.90
2022-10-19T08:34:10.065Z,4.05
2022-10-19T08:36:39.368Z,3.95
2022-10-19T08:39:09.081Z,3.97
2022-10-19T08:41:54.542Z,4.45
2022-10-19T08:44:48.808Z,4.60
2022-10-19T08:47:36.100Z,3.83
2022-10-19T08:50:10.274Z,3.88
2022-10-19T08:52:38.612Z,3.70
2022-10-19T08:55:16.426Z,2.63
2022-10-19T08:58:05.064Z,2.83
2022-10-19T09:00:55.223Z,3.10
2022-10-19T09:03:54.338Z,2.72
2022-10-19T09:06:22.271Z,2.88
2022-10-19T09:08:53.178Z,2.85
2022-10-19T09:11:26.078Z,2.47
2022-10-19T09:14:05.442Z,2.50
2022-10-19T09:16:35.318Z,2.40
2022-10-19T09:19:03.942Z,2.67
2022-10-19T09:21:51.015Z,2.35
2022-10-19T09:24:32.689Z,2.60
2022-10-19T09:27:01.793Z,2.90
2022-10-19T09:29:40.918Z,1.90
2022-10-19T09:32:24.716Z,1.83
2022-10-19T09:34:54.553Z,1.60
2022-10-19T09:37:26.353Z,1.70
2022-10-19T09:39:56.600Z,2.20
2022-10-19T09:42:26.456Z,1.58
2022-10-19T09:44:55.100Z,1.85
2022-10-19T09:47:32.298Z,2.10
2022-10-19T09:50:20.371Z,1.85
2022-10-19T09:52:52.438Z,1.40
2022-10-19T09:55:38.224Z,2.00
2022-10-19T09:58:17.335Z,1.75
2022-10-19T10:00:50.945Z,1.52
2022-10-19T10:03:43.726Z,1.58
2022-10-19T10:06:16.402Z,1.83
2022-10-19T10:08:52.923Z,1.42
2022-10-19T10:11:29.788Z,1.13
2022-10-19T10:13:58.508Z,1.45
2022-10-19T10:16:30.517Z,1.27
2022-10-19T10:19:17.380Z,1.70
2022-10-19T10:21:52.433Z,1.85
2022-10-19T10:24:21.248Z,1.98
2022-10-19T10:26:51.312Z,1.30
2022-10-19T10:29:35.602Z,1.70
2022-10-19T10:32:07.961Z,1.58
2022-10-19T10:34:46.001Z,1.67
2022-10-19T10:37:22.485Z,2.22
2022-10-19T10:39:57.833Z,1.50
2022-10-19T10:42:43.554Z,1.35
2022-10-19T10:45:39.489Z,1.10
2022-10-19T10:48:25.665Z,1.52
2022-10-19T10:50:53.051Z,2.33
2022-10-19T10:53:33.780Z,2.08
2022-10-19T10:56:05.696Z,1.48
2022-10-19T10:58:50.196Z,1.40
2022-10-19T11:01:22.444Z,1.88
2022-10-19T11:04:22.361Z,2.00
2022-10-19T11:06:59.205Z,1.83
2022-10-19T11:09:38.402Z,1.30
2022-10-19T11:12:14.740Z,1.67
2022-10-19T11:14:51.971Z,1.88
2022-10-19T11:17:24.092Z,1.40
2022-10-19T11:19:51.488Z,1.23
2022-10-19T11:23:04.732Z,1.42
2022-10-19T11:25:43.671Z,2.00
2022-10-19T11:28:13.481Z,1.38
2022-10-19T11:31:10.888Z,1.73
2022-10-19T11:33:48.807Z,1.95
2022-10-19T11:36:53.506Z,1.60
2022-10-19T11:39:23.195Z,1.50
2022-10-19T11:42:34.672Z,2.25
2022-10-19T11:45:05.136Z,1.85
2022-10-19T11:48:09.589Z,1.73
2022-10-19T11:50:39.398Z,1.55
2022-10-19T11:53:33.217Z,1.60
2022-10-19T11:56:09.309Z,1.30
2022-10-19T11:58:42.162Z,1.65
2022-10-19T12:01:35.510Z,1.63
2022-10-19T12:04:42.681Z,1.75
2022-10-19T12:07:36.936Z,1.50
2022-10-19T12:10:31.324Z,1.40
2022-10-19T12:13:02.785Z,1.50
2022-10-19T12:15:41.839Z,1.25
2022-10-19T12:18:23.907Z,1.70
2022-10-19T12:20:53.792Z,1.40
2022-10-19T12:23:31.110Z,1.50
2022-10-19T12:26:00.198Z,1.30
2022-10-19T12:28:35.924Z,1.88
2022-10-19T12:31:11.506Z,1.35
2022-10-19T12:33:47.446Z,2.03
2022-10-19T12:36:45.042Z,1.30
2022-10-19T12:39:26.547Z,1.63
2022-10-19T12:42:10.673Z,1.30
2022-10-19T12:45:05.881Z,1.90
2022-10-19T12:47:32.889Z,1.60
2022-10-19T12:50:00.255Z,1.45
2022-10-19T12:52:45.620Z,1.63
2022-10-19T12:55:17.742Z,1.85
2022-10-19T12:57:48.462Z,1.90
2022-10-19T13:00:25.228Z,1.50
2022-10-19T13:03:06.474Z,1.80
2022-10-19T13:05:34.852Z,1.20
2022-10-19T13:08:06.112Z,1.38
2022-10-19T13:10:35.277Z,1.70
2022-10-19T13:13:03.286Z,2.00
2022-10-19T13:15:36.333Z,1.60
2022-10-19T13:18:16.327Z,1.38
2022-10-19T13:20:53.497Z,1.52
2022-10-19T13:23:20.358Z,1.60
2022-10-19T13:25:47.437Z,1.83
2022-10-19T13:28:15.344Z,1.75
2022-10-19T13:30:42.311Z,1.65
2022-10-19T13:33:25.243Z,1.80
2022-10-19T13:36:04.224Z,1.83
2022-10-19T13:38:40.352Z,1.40
2022-10-19T13:41:22.374Z,1.92
2022-10-19T13:44:01.333Z,1.90
2022-10-19T13:46:30.983Z,1.60
2022-10-19T13:49:03.478Z,1.58
2022-10-19T13:51:55.060Z,2.85
2022-10-19T13:54:49.249Z,1.73
2022-10-19T13:57:23.007Z,1.90
2022-10-19T14:00:05.587Z,1.65
2022-10-19T14:02:46.432Z,1.50
2022-10-19T14:05:22.213Z,1.98
2022-10-19T14:08:12.159Z,1.67
2022-10-19T14:13:26.598Z,1.90
2022-10-19T14:15:57.606Z,1.50
2022-10-19T14:18:34.102Z,2.30
2022-10-19T14:21:07.043Z,1.95
2022-10-19T14:23:40.463Z,1.92
2022-10-19T14:26:15.380Z,1.70
2022-10-19T14:28:45.076Z,1.48
2022-10-19T14:31:21.874Z,1.50
2022-10-19T14:33:58.367Z,1.50
2022-10-19T14:36:30.884Z,1.60
2022-10-19T14:38:57.767Z,2.13
2022-10-19T14:41:27.781Z,1.83
2022-10-19T14:43:58.463Z,2.65
2022-10-19T14:46:31.058Z,2.20
2022-10-19T14:49:02.835Z,2.35
2022-10-19T14:51:35.626Z,1.95
2022-10-19T14:54:11.638Z,1.92
2022-10-19T14:56:55.116Z,1.95
2022-10-19T14:59:46.186Z,1.85
2022-10-19T15:02:22.717Z,2.13
2022-10-19T15:04:51.475Z,2.30
2022-10-19T15:07:25.849Z,2.60
2022-10-19T15:09:56.804Z,2.25
2022-10-19T15:12:30.412Z,2.22
2022-10-19T15:15:00.142Z,2.57
2022-10-19T15:17:32.171Z,2.50
2022-10-19T15:20:02.712Z,2.33
2022-10-19T15:22:32.415Z,2.80
2022-10-19T15:25:08.337Z,2.42
2022-10-19T15:27:37.844Z,2.83
2022-10-19T15:30:21.199Z,3.85
2022-10-19T15:32:51.059Z,2.97
2022-10-19T15:35:31.719Z,2.58
2022-10-19T15:38:23.464Z,2.72
2022-10-19T15:40:57.344Z,3.03
2022-10-19T15:43:38.498Z,3.00
2022-10-19T15:46:31.147Z,2.72
2022-10-19T15:49:00.580Z,2.55
2022-10-19T15:51:27.258Z,2.60
2022-10-19T15:53:55.906Z,2.85
2022-10-19T15:56:24.783Z,3.10
2022-10-19T15:58:53.141Z,2.97
2022-10-19T16:01:24.990Z,3.65
2022-10-19T16:03:52.589Z,3.60
2022-10-19T16:06:23.317Z,3.67
2022-10-19T16:08:51.301Z,4.28
2022-10-19T16:11:23.117Z,5.00
2022-10-19T16:13:50.252Z,3.85
2022-10-19T16:16:28.367Z,3.55
2022-10-19T16:18:55.664Z,3.50
2022-10-19T16:21:26.319Z,3.58
2022-10-19T16:23:53.536Z,3.13
2022-10-19T16:26:23.499Z,2.90
2022-10-19T16:28:53.236Z,3.20
2022-10-19T16:31:20.513Z,3.17
2022-10-19T16:33:47.151Z,2.95
2022-10-19T16:36:14.155Z,3.10
2022-10-19T16:38:40.731Z,3.30
2022-10-19T16:41:09.497Z,3.33
2022-10-19T16:43:38.746Z,3.50
2022-10-19T16:46:06.357Z,3.53
2022-10-19T16:48:34.993Z,3.78
2022-10-19T16:51:07.916Z,3.50
2022-10-19T16:53:35.349Z,3.40
2022-10-19T16:56:07.386Z,4.05
2022-10-19T16:58:34.067Z,3.95
2022-10-19T17:01:09.405Z,3.45
2022-10-19T17:03:36.517Z,3.65
2022-10-19T17:06:05.140Z,3.90
2022-10-19T17:08:36.920Z,4.20
2022-10-19T17:11:23.807Z,3.28
2022-10-19T17:13:52.971Z,3.70
2022-10-19T17:16:21.622Z,4.25
2022-10-19T17:18:48.964Z,3.42
2022-10-19T17:21:22.903Z,3.10
2022-10-19T17:23:55.436Z,4.18
2022-10-19T17:26:30.913Z,3.67
2022-10-19T17:28:59.051Z,4.60
2022-10-19T17:31:26.915Z,4.78
2022-10-19T17:33:54.777Z,4.80
2022-10-19T17:36:28.326Z,3.53
2022-10-19T17:39:03.865Z,4.25
2022-10-19T17:41:31.135Z,4.32
2022-10-19T17:43:58.790Z,3.10
2022-10-19T17:46:30.757Z,3.45
2022-10-19T17:49:00.598Z,3.80
2022-10-19T17:51:32.568Z,3.60
2022-10-19T17:54:05.009Z,3.58
2022-10-19T17:56:32.260Z,3.17
2022-10-19T17:59:00.103Z,3.33
2022-10-19T18:01:26.884Z,3.00
2022-10-19T18:03:57.066Z,3.25
2022-10-19T18:06:31.610Z,3.53
2022-10-19T18:08:59.976Z,3.25
2022-10-19T18:11:32.099Z,2.90
2022-10-19T18:14:01.659Z,3.45
2022-10-19T18:16:31.304Z,3.13
2022-10-19T18:19:00.249Z,4.20
2022-10-19T18:21:34.560Z,3.15
2022-10-19T18:24:02.378Z,2.88
2022-10-19T18:26:31.274Z,3.40
2022-10-19T18:28:59.632Z,3.15
2022-10-19T18:31:31.736Z,3.67
2022-10-19T18:34:06.560Z,3.35
2022-10-19T18:36:33.952Z,2.90
2022-10-19T18:39:03.767Z,2.83
2022-10-19T18:41:30.912Z,2.67
2022-10-19T18:44:03.702Z,3.22
2022-10-19T18:46:31.250Z,2.53
2022-10-19T18:48:59.249Z,2.97
2022-10-19T18:51:27.086Z,2.97
2022-10-19T18:53:53.767Z,3.13
2022-10-19T18:56:22.844Z,2.97
2022-10-19T18:58:49.843Z,3.08
2022-10-19T19:01:22.994Z,3.08
2022-10-19T19:03:51.487Z,2.67
2022-10-19T19:06:29.579Z,3.03
2022-10-19T19:09:01.212Z,3.15
2022-10-19T19:11:33.015Z,2.90
2022-10-19T19:14:06.936Z,3.20
2022-10-19T19:16:38.107Z,3.42
2022-10-19T19:19:06.468Z,3.35
2022-10-19T19:21:34.983Z,3.03
2022-10-19T19:24:05.909Z,4.03
2022-10-19T19:26:42.923Z,3.00
2022-10-19T19:29:12.220Z,3.60
2022-10-19T19:31:39.412Z,3.90
2022-10-19T19:34:06.855Z,3.15
2022-10-19T19:36:33.500Z,3.92
2022-10-19T19:39:03.798Z,3.22
2022-10-19T19:41:32.775Z,3.20
2022-10-19T19:44:02.695Z,2.90
2022-10-19T19:46:29.930Z,3.72
2022-10-19T19:49:04.611Z,3.72
2022-10-19T19:51:35.295Z,3.25
2022-10-19T19:54:01.835Z,3.80
2022-10-19T19:56:29.270Z,3.58
2022-10-19T19:59:00.072Z,3.90
2022-10-19T20:01:27.034Z,4.05
2022-10-19T20:03:53.763Z,3.88
2022-10-19T20:06:23.665Z,3.60
2022-10-19T20:08:52.889Z,3.75
2022-10-19T20:11:25.962Z,3.22
2022-10-19T20:13:53.133Z,3.70
2022-10-19T20:16:29.030Z,4.00
2022-10-19T20:19:01.399Z,4.82
2022-10-19T20:21:28.281Z,4.20
2022-10-19T20:23:54.874Z,4.25
2022-10-19T20:26:25.722Z,3.67
2022-10-19T20:28:55.027Z,3.80
2022-10-19T20:31:24.188Z,3.88
2022-10-19T20:33:50.877Z,3.90
2022-10-19T20:36:23.330Z,4.18
2022-10-19T20:38:55.811Z,4.00
2022-10-19T20:41:27.060Z,3.92
2022-10-19T20:43:54.390Z,3.58
2022-10-19T20:46:29.174Z,3.83
2022-10-19T20:48:59.589Z,4.00
2022-10-19T20:51:31.890Z,4.20
2022-10-19T20:54:00.808Z,4.10
2022-10-19T20:56:34.177Z,3.40
2022-10-19T21:01:32.343Z,3.83
2022-10-19T21:04:01.486Z,4.00
2022-10-19T21:06:30.635Z,3.67
2022-10-19T21:08:58.278Z,3.70
2022-10-19T21:11:28.290Z,4.03
2022-10-19T21:13:59.935Z,4.28
2022-10-19T21:16:30.397Z,4.18
2022-10-19T21:18:57.446Z,4.10
2022-10-19T21:21:28.979Z,4.07
2022-10-19T21:24:01.741Z,3.95
2022-10-19T21:26:29.083Z,4.40
2022-10-19T21:28:56.392Z,3.80
2022-10-19T21:31:25.065Z,4.47
2022-10-19T21:33:55.075Z,3.60
2022-10-19T21:36:25.103Z,3.80
2022-10-19T21:38:54.156Z,3.92
2022-10-19T21:41:25.350Z,4.13
2022-10-19T21:43:53.538Z,4.18
2022-10-19T21:46:22.208Z,3.88
2022-10-19T21:48:52.111Z,4.45
2022-10-19T21:51:21.872Z,4.22
2022-10-19T21:53:48.849Z,4.20
2022-10-19T21:56:18.576Z,4.38
2022-10-19T21:58:52.292Z,5.13
2022-10-19T22:01:21.404Z,4.78
2022-10-19T22:03:48.153Z,4.90
2022-10-19T22:06:15.193Z,5.43
2022-10-19T22:08:45.779Z,4.45
2022-10-19T22:11:13.986Z,4.75
2022-10-19T22:13:43.409Z,4.45
2022-10-19T22:16:15.955Z,4.40
2022-10-19T22:18:43.196Z,5.13
2022-10-19T22:21:14.526Z,5.50
2022-10-19T22:23:42.041Z,3.75
2022-10-19T22:26:13.550Z,4.70
2022-10-19T22:28:40.378Z,4.63
2022-10-19T22:31:07.013Z,5.03
2022-10-19T22:33:37.200Z,5.03
2022-10-19T22:36:06.501Z,5.70
2022-10-19T22:38:34.161Z,5.50
2022-10-19T22:41:58.752Z,4.78
2022-10-19T22:44:25.533Z,4.80
2022-10-19T22:46:52.246Z,5.80
2022-10-19T22:49:21.488Z,5.20
2022-10-19T22:51:48.352Z,4.90
2022-10-19T22:54:15.441Z,5.30
2022-10-19T22:56:42.986Z,4.38
2022-10-19T22:59:10.064Z,5.00
2022-10-19T23:01:37.923Z,4.53
2022-10-19T23:04:07.523Z,5.03
2022-10-19T23:06:34.189Z,5.90
2022-10-19T23:09:00.875Z,5.53
2022-10-19T23:11:28.329Z,4.75
2022-10-19T23:13:57.129Z,5.05
2022-10-19T23:18:57.899Z,5.75
2022-10-19T23:21:24.557Z,5.55
2022-10-19T23:23:54.131Z,5.28
2022-10-19T23:26:22.168Z,5.53
2022-10-19T23:28:50.073Z,5.35
2022-10-19T23:31:26.235Z,5.72
2022-10-19T23:33:53.741Z,5.53
2022-10-19T23:36:27.057Z,5.63
2022-10-19T23:38:59.990Z,5.80
2022-10-19T23:41:26.874Z,5.68
2022-10-19T23:43:55.882Z,5.78
2022-10-19T23:46:22.586Z,6.85
2022-10-19T23:48:49.348Z,5.93
2022-10-19T23:51:19.087Z,5.90
2022-10-19T23:53:48.068Z,6.30
2022-10-19T23:56:22.310Z,5.97
2022-10-19T23:58:49.456Z,5.82
